San Jacinto, Nevada
Current Conditions -  °F | °C
As of 9:53 PM on Monday 20 Oct 2014 (Local Time) from KTWF Reporting Station
Scattered Clouds Scattered Clouds  
Wind Chill: 66°   Ceiling: Unl
Heat Index: 66°   Visibility: 10mi
Dew Point: 34°   Wind: 10mph
Humidity: 30%   Direction: 220°SW
Pressure: 29.78"   Gusts: NA
Location:  41.8136°N, 115.084°W
Report Text: KTWF 210453Z AUTO 22009KT 10SM SCT120 19/01 A2978 RMK AO2 SLP037 T01890011
Loading
Personal Weather Stations






























Interactive Weather Map
Tropical Storm Tracking
New forecast layout! Learn more

10-Day Weather Forecast

Advertisements
Track Severe Weather on mobile